Site Report
Select Start Month: Select End Month:
Cape Cod Marathon (Oct 30, 2010 - Nov 01, 2010)
Cape Cod Marathon (MABCCCMA) Falmouth, MA (USA) Lat,Long: 41.59002,-70.59868 Map Elevation: 100 feet 37 species 1 trip (0 non-trip sightings)
The Cape Code Marathon route (http://www.usatf.org/routes/view.asp?rID=142625) starts in downtown Falmouth, runs south then east along the waterfront to Davisville, north on Davisville, Old Meetinghouse Road and Hatchville then west on Gegatt and Thomas B Landers to the halfway point on 28A. For the second half, the course runs south to Woods Hole on 28A, Sippewisset and Quissett Avenues, then northeast along the shore to Walker and back to downtown Falmouth. More than half the course runs through wealthy residential areas in oak and oak pine woods. Another quarter of the course runs along the waterfront - beaches and small salt marshes as well as marinas and other businesses. Minor but productive habitats include freshwater ponds and marshes, cranberry bogs, windswept shoreline thickets and even a couple of eastern red cedar bogs.
Species Sightings Trips First Date Last Date Avg/Sighting Avg/Trip Max Ct
Canada Goose 1   1 10/31/2010 10/31/2010 5.0 5.0 5
Mute Swan 1   1 10/31/2010 10/31/2010 6.0 6.0 6
Mallard 1   1 10/31/2010 10/31/2010 15.0 15.0 15
Greater Scaup 1   1 10/31/2010 10/31/2010 1.0 1.0 1
Common Eider 1   1 10/31/2010 10/31/2010 1.0 1.0 1
Common Loon 1   1 10/31/2010 10/31/2010 1.0 1.0 1
Double-crested Cormorant 1   1 10/31/2010 10/31/2010 12.0 12.0 12
Cooper's Hawk 1   1 10/31/2010 10/31/2010 1.0 1.0 1
Red-tailed Hawk 1   1 10/31/2010 10/31/2010 2.0 2.0 2
Greater Yellowlegs 1   1 10/31/2010 10/31/2010 1.0 1.0 1
Sanderling 1   1 10/31/2010 10/31/2010 40.0 40.0 40
Ring-billed Gull 1   1 10/31/2010 10/31/2010 35.0 35.0 35
Herring Gull 1   1 10/31/2010 10/31/2010 25.0 25.0 25
Great Black-backed Gull 1   1 10/31/2010 10/31/2010 2.0 2.0 2
Rock Pigeon 1   1 10/31/2010 10/31/2010 8.0 8.0 8
Mourning Dove 1   1 10/31/2010 10/31/2010 6.0 6.0 6
Red-bellied Woodpecker 1   1 10/31/2010 10/31/2010 1.0 1.0 1
Downy Woodpecker 1   1 10/31/2010 10/31/2010 2.0 2.0 2
Hairy Woodpecker 1   1 10/31/2010 10/31/2010 1.0 1.0 1
Northern Flicker 1   1 10/31/2010 10/31/2010 2.0 2.0 2
Blue Jay 1   1 10/31/2010 10/31/2010 12.0 12.0 12
American Crow 1   1 10/31/2010 10/31/2010 16.0 16.0 16
Black-capped Chickadee 1   1 10/31/2010 10/31/2010 30.0 30.0 30
Tufted Titmouse 1   1 10/31/2010 10/31/2010 15.0 15.0 15
White-breasted Nuthatch 1   1 10/31/2010 10/31/2010 1.0 1.0 1
Carolina Wren 1   1 10/31/2010 10/31/2010 3.0 3.0 3
Golden-crowned Kinglet 1   1 10/31/2010 10/31/2010 10.0 10.0 10
Ruby-crowned Kinglet 1   1 10/31/2010 10/31/2010 1.0 1.0 1
American Robin 1   1 10/31/2010 10/31/2010 15.0 15.0 15
European Starling 1   1 10/31/2010 10/31/2010 18.0 18.0 18
Blackpoll Warbler 1   1 10/31/2010 10/31/2010 8.0 8.0 8
Yellow-rumped Warbler 1   1 10/31/2010 10/31/2010 4.0 4.0 4
Song Sparrow 1   1 10/31/2010 10/31/2010 10.0 10.0 10
Dark-eyed Junco 1   1 10/31/2010 10/31/2010 2.0 2.0 2
Northern Cardinal 1   1 10/31/2010 10/31/2010 15.0 15.0 15
American Goldfinch 1   1 10/31/2010 10/31/2010 3.0 3.0 3
House Sparrow 1   1 10/31/2010 10/31/2010 15.0 15.0 15
Home